logo
Search for airport 
image banner adimage banner adimage banner ad
image banner ad

LGARAC - Arachthos

Located in Arta, Greece

ICAO - , IATA -

Data provided by Airmate  

General information

Coordinates: N39°5'14" E20°58'17"
Elevation is 3 feet MSL.
Magnetic variation is 5° East
View others Airports in Ioannina

Operational data

Special qualification required
Current time UTC:
Current local time:
Weather at : LGPZ - Preveza / Aktion ( 25 km )
METAR: LGPZ 152250Z 08004KT 9999 SCT015 14/14 Q1016 RMK SCT180 BLU
TAF: TAF LGPZ 151700Z 1518/1618 27010KT 9999 FEW018 BECMG 1518/1520 VRB05KT BECMG 1522/1524 06010KT PROB30 1600/1606 4000 BR SCT008 BECMG 1606/1608 FEW018 BKN070 BECMG 1610/1612 27010KT BECMG 1615/1617 VRB05KT
View NOTAMs / SUP AIP / TFR affecting this airport [VIEW]
Communications frequencies: [VIEW]

Runways:

RWY identifierQFULength (ft)Width (ft)SurfaceLDA (ft)
17166°144482ASPH1444
35346°144482ASPH1444

Airport contact information

Address: Arta Greece

Satellite view of LGARAC